Time;durP1;ratioP1;P1;durP2;ratioP2;P2;SDS_P1;SDS_P2;PMS_P1;PMS_P2;Temp;Humidity;BMP_temperature;BMP_pressure;BME280_temperature;BME280_humidity;BME280_pressure;Samples;Min_cycle;Max_cycle;Signal;HPM_P1;HPM_P2
2023/02/24 00:01:50;;;;;;;;;;;;;;;7.76;85.50;100533.00;4173317;28;20007;-65
2023/02/24 00:03:55;;;;;;;;;;;;;;;7.75;85.45;100537.50;4173624;28;20020;-65
2023/02/24 00:05:58;;;;;;;;;;;;;;;7.76;85.58;100536.50;4172423;28;20020;-65
2023/02/24 00:08:00;;;;;;;;;;;;;;;7.76;85.54;100530.31;4173113;28;20012;-65
2023/02/24 00:10:03;;;;;;;;;;;;;;;7.75;85.62;100529.44;4173180;28;20019;-65
2023/02/24 00:12:07;;;;;;;;;;;;;;;7.75;85.42;100525.91;4168021;28;20019;-64
2023/02/24 00:14:11;;;;;;;;;;;;;;;7.74;85.19;100526.91;4173120;28;20015;-64
2023/02/24 00:16:13;;;;;;;;;;;;;;;7.73;85.29;100523.41;4172337;28;20011;-65
2023/02/24 00:18:15;;;;;;;;;;;;;;;7.72;85.42;100519.00;4172514;28;20016;-64
2023/02/24 00:20:19;;;;;;;;;;;;;;;7.72;85.40;100526.25;4185673;28;20007;-64
2023/02/24 00:22:21;;;;;;;;;;;;;;;7.68;85.10;100523.06;4196475;28;20023;-64
2023/02/24 00:24:23;;;;;;;;;;;;;;;7.67;84.98;100520.53;4196660;28;20027;-64
2023/02/24 00:26:25;;;;;;;;;;;;;;;7.66;85.31;100516.16;4194988;28;20023;-64
2023/02/24 00:28:27;;;;;;;;;;;;;;;7.68;85.67;100515.00;4195153;28;20011;-65
2023/02/24 00:30:31;;;;;;;;;;;;;;;7.67;85.48;100507.91;4195639;28;20119;-65
2023/02/24 00:32:34;;;;;;;;;;;;;;;7.67;85.33;100513.28;4195982;28;20011;-65
2023/02/24 00:34:38;;;;;;;;;;;;;;;7.64;85.15;100510.09;4204083;28;19929;-64
2023/02/24 00:36:41;;;;;;;;;;;;;;;7.64;85.37;100513.63;4196101;28;20022;-65
2023/02/24 00:38:45;;;;;;;;;;;;;;;7.64;85.13;100507.41;4187083;28;20031;-65
2023/02/24 00:40:47;;;;;;;;;;;;;;;7.64;85.21;100508.25;4196017;28;20047;-65
2023/02/24 00:42:49;;;;;;;;;;;;;;;7.65;85.17;100495.63;4196676;28;20015;-65
2023/02/24 00:44:52;;;;;;;;;;;;;;;7.63;84.93;100493.13;4195736;28;20071;-65
2023/02/24 00:46:55;;;;;;;;;;;;;;;7.64;84.56;100505.56;4194881;28;20035;-65
2023/02/24 00:48:57;;;;;;;;;;;;;;;7.63;84.66;100495.81;4204719;28;20035;-66
2023/02/24 00:51:00;;;;;;;;;;;;;;;7.64;84.59;100493.97;4186133;28;20019;-66
2023/02/24 00:53:04;;;;;;;;;;;;;;;7.63;84.28;100494.97;4187310;28;20023;-65
2023/02/24 00:55:13;;;;;;;;;;;;;;;7.62;84.08;100494.13;4194688;28;20036;-65
2023/02/24 00:57:16;;;;;;;;;;;;;;;7.62;84.00;100488.75;4190901;28;20044;-65
2023/02/24 00:59:19;;;;;;;;;;;;;;;7.61;83.87;100484.38;4191242;28;20434;-65
2023/02/24 01:01:22;;;;;;;;;;;;;;;7.59;83.81;100486.41;4192248;28;20446;-65
2023/02/24 01:03:25;;;;;;;;;;;;;;;7.58;84.12;100485.53;4193426;28;20035;-65
2023/02/24 01:05:27;;;;;;;;;;;;;;;7.59;84.11;100478.34;4193559;28;20434;-64
2023/02/24 01:07:30;;;;;;;;;;;;;;;7.57;84.12;100474.97;4194383;28;20470;-65
2023/02/24 01:09:34;;;;;;;;;;;;;;;7.57;83.79;100478.50;4186675;28;20031;-65
2023/02/24 01:13:55;;;;;;;;;;;;;;;7.58;82.95;100473.97;4194742;28;20007;-65
2023/02/24 01:16:01;;;;;;;;;;;;;;;7.56;82.28;100490.25;4184527;28;20020;-65
2023/02/24 01:18:03;;;;;;;;;;;;;;;7.54;81.38;100484.19;4193465;28;20019;-65
2023/02/24 01:20:15;;;;;;;;;;;;;;;7.51;81.31;100487.22;4184433;28;20006;-65
2023/02/24 01:22:18;;;;;;;;;;;;;;;7.49;80.82;100496.44;4192718;28;20019;-65
2023/02/24 01:24:21;;;;;;;;;;;;;;;7.45;80.29;100493.25;4200800;28;19925;-64
2023/02/24 01:26:25;;;;;;;;;;;;;;;7.42;79.92;100492.72;4192042;28;20485;-65
2023/02/24 01:28:27;;;;;;;;;;;;;;;7.39;79.59;100489.34;4193851;28;20395;-65
2023/02/24 01:30:30;;;;;;;;;;;;;;;7.36;79.27;100480.78;4183180;28;20362;-64
2023/02/24 01:32:32;;;;;;;;;;;;;;;7.33;78.21;100479.25;4185963;28;20011;-65
2023/02/24 01:34:34;;;;;;;;;;;;;;;7.31;77.67;100481.25;4201264;28;20028;-65
2023/02/24 01:36:39;;;;;;;;;;;;;;;7.29;77.01;100485.09;4193742;28;20019;-64
2023/02/24 01:38:42;;;;;;;;;;;;;;;7.22;76.55;100482.22;4190040;28;20028;-65
2023/02/24 01:40:44;;;;;;;;;;;;;;;7.18;76.33;100470.16;4184264;28;20027;-65
2023/02/24 01:42:48;;;;;;;;;;;;;;;7.13;75.36;100484.06;4195659;28;20020;-65
2023/02/24 01:45:11;;;;;;;;;;;;;;;7.06;75.18;100476.81;4185605;28;20008;-65
2023/02/24 01:47:14;;;;;;;;;;;;;;;7.03;75.16;100470.72;4203281;28;20138;-65
2023/02/24 01:49:17;;;;;;;;;;;;;;;7.01;75.07;100477.28;4210986;28;20338;-65
2023/02/24 01:51:19;;;;;;;;;;;;;;;6.98;74.39;100469.53;4194869;28;20019;-65
2023/02/24 01:53:21;;;;;;;;;;;;;;;6.95;74.21;100464.50;4194114;28;20011;-65
2023/02/24 01:55:27;;;;;;;;;;;;;;;6.93;74.18;100471.84;4195503;28;20011;-65
2023/02/24 01:57:30;;;;;;;;;;;;;;;6.91;73.76;100460.44;4195929;28;20035;-65
2023/02/24 01:59:35;;;;;;;;;;;;;;;6.89;73.95;100462.44;4186088;28;20678;-65
2023/02/24 02:01:39;;;;;;;;;;;;;;;6.87;73.80;100461.78;4191997;28;20031;-65
2023/02/24 02:03:41;;;;;;;;;;;;;;;6.85;73.95;100461.94;4185816;28;20007;-65
2023/02/24 02:05:47;;;;;;;;;;;;;;;6.83;73.74;100455.88;4195610;28;20374;-65
2023/02/24 02:07:50;;;;;;;;;;;;;;;6.81;73.52;100456.03;4187165;28;20028;-65
2023/02/24 02:09:53;;;;;;;;;;;;;;;6.80;73.58;100458.88;4181754;28;20023;-65
2023/02/24 02:11:55;;;;;;;;;;;;;;;6.80;73.48;100458.88;4171127;28;20020;-65
2023/02/24 02:13:57;;;;;;;;;;;;;;;6.78;72.93;100452.81;4169780;28;20422;-65
2023/02/24 02:16:02;;;;;;;;;;;;;;;6.76;72.51;100457.53;4190095;28;20003;-66
2023/02/24 02:18:05;;;;;;;;;;;;;;;6.72;72.20;100459.66;4195159;28;20035;-65
2023/02/24 02:20:30;;;;;;;;;;;;;;;6.67;72.23;100462.00;4194729;28;20471;-65
2023/02/24 02:22:40;;;;;;;;;;;;;;;6.62;72.23;100462.47;4187532;28;20023;-65
2023/02/24 02:24:47;;;;;;;;;;;;;;;6.61;72.15;100462.63;4193401;28;20018;-65
2023/02/24 02:27:07;;;;;;;;;;;;;;;6.58;71.75;100461.13;4194219;28;19925;-64
2023/02/24 02:29:13;;;;;;;;;;;;;;;6.53;71.54;100451.84;4149886;28;20019;-65
2023/02/24 02:31:27;;;;;;;;;;;;;;;6.51;71.80;100449.31;4184820;28;20511;-65
2023/02/24 02:33:45;;;;;;;;;;;;;;;6.49;72.10;100454.00;4174026;28;20614;-65
2023/02/24 02:35:49;;;;;;;;;;;;;;;6.44;71.67;100449.09;4189572;28;20020;-64
2023/02/24 02:37:55;;;;;;;;;;;;;;;6.44;71.41;100451.78;4192505;28;20024;-65
2023/02/24 02:39:59;;;;;;;;;;;;;;;6.40;70.73;100446.91;4194486;28;20024;-65
2023/02/24 02:42:03;;;;;;;;;;;;;;;6.38;70.44;100438.13;4194917;28;20019;-65
2023/02/24 02:44:07;;;;;;;;;;;;;;;6.36;70.79;100440.97;4194350;28;20016;-65
2023/02/24 02:46:13;;;;;;;;;;;;;;;6.36;70.75;100442.84;4200583;28;20364;-65
2023/02/24 02:48:15;;;;;;;;;;;;;;;6.36;70.40;100443.66;4194397;28;20011;-65
2023/02/24 02:50:19;;;;;;;;;;;;;;;6.34;69.93;100443.00;4208100;28;20024;-65
2023/02/24 02:52:23;;;;;;;;;;;;;;;6.34;70.25;100443.00;4194799;28;20060;-65
2023/02/24 02:54:27;;;;;;;;;;;;;;;6.32;69.53;100448.50;4185389;28;20036;-65
2023/02/24 02:56:30;;;;;;;;;;;;;;;6.31;69.06;100443.31;4194016;28;20027;-64
2023/02/24 02:58:34;;;;;;;;;;;;;;;6.27;68.95;100449.97;4202357;28;20007;-65
2023/02/24 03:00:36;;;;;;;;;;;;;;;6.25;69.09;100451.97;4193520;28;20374;-65
2023/02/24 03:02:38;;;;;;;;;;;;;;;6.24;68.82;100450.31;4194310;28;20015;-65
2023/02/24 03:04:42;;;;;;;;;;;;;;;6.19;68.05;100447.22;4201739;28;20015;-65
2023/02/24 03:06:46;;;;;;;;;;;;;;;6.14;67.64;100439.66;4185682;28;20019;-65
2023/02/24 03:08:51;;;;;;;;;;;;;;;6.09;66.61;100447.31;4186708;28;20024;-65
2023/02/24 03:10:53;;;;;;;;;;;;;;;6.07;66.55;100452.00;4184953;28;20020;-65
2023/02/24 03:12:56;;;;;;;;;;;;;;;6.06;66.33;100443.09;4168816;28;20012;-65
2023/02/24 03:15:00;;;;;;;;;;;;;;;6.05;65.66;100451.28;4190737;28;20464;-66
2023/02/24 03:17:03;;;;;;;;;;;;;;;6.02;64.99;100447.09;4209163;28;19969;-66
2023/02/24 03:19:06;;;;;;;;;;;;;;;5.97;64.47;100445.88;4202436;28;20031;-65
2023/02/24 03:21:08;;;;;;;;;;;;;;;5.95;64.39;100449.50;4186143;28;20372;-65
2023/02/24 03:23:15;;;;;;;;;;;;;;;5.94;64.37;100446.97;4185610;28;20501;-65
2023/02/24 03:25:22;;;;;;;;;;;;;;;5.90;64.85;100441.09;4201879;28;20047;-65
2023/02/24 03:27:26;;;;;;;;;;;;;;;5.87;64.83;100436.03;4209953;28;20015;-65
2023/02/24 03:29:29;;;;;;;;;;;;;;;5.85;64.78;100429.16;4209627;28;20027;-66
2023/02/24 03:31:33;;;;;;;;;;;;;;;5.83;65.16;100434.69;4202099;28;20377;-65
2023/02/24 03:33:36;;;;;;;;;;;;;;;5.81;64.63;100433.97;4208775;28;20030;-66
2023/02/24 03:35:39;;;;;;;;;;;;;;;5.80;64.80;100429.63;4182353;28;20016;-65
2023/02/24 03:37:41;;;;;;;;;;;;;;;5.78;64.51;100421.75;4177232;28;20442;-65
2023/02/24 03:39:46;;;;;;;;;;;;;;;5.73;64.08;100421.34;4173002;28;20012;-65
2023/02/24 03:41:56;;;;;;;;;;;;;;;5.65;64.58;100415.91;4185221;28;20015;-65
2023/02/24 03:44:02;;;;;;;;;;;;;;;5.66;64.62;100422.09;4184917;28;19966;-65
2023/02/24 03:46:04;;;;;;;;;;;;;;;5.66;64.74;100414.94;4183461;28;20007;-65
2023/02/24 03:48:06;;;;;;;;;;;;;;;5.65;64.98;100418.59;4192539;28;20035;-65
2023/02/24 03:50:11;;;;;;;;;;;;;;;5.66;64.78;100417.59;4201778;28;20461;-65
2023/02/24 03:52:20;;;;;;;;;;;;;;;5.64;65.35;100410.72;4192117;28;20023;-65
2023/02/24 03:54:29;;;;;;;;;;;;;;;5.64;64.62;100410.72;4192208;28;20015;-66
2023/02/24 03:56:39;;;;;;;;;;;;;;;5.62;64.63;100412.72;4202623;28;20020;-65
2023/02/24 03:58:45;;;;;;;;;;;;;;;5.55;64.90;100397.25;4197092;28;20031;-65
2023/02/24 04:00:48;;;;;;;;;;;;;;;5.51;64.77;100395.03;4203650;28;20026;-66
2023/02/24 04:02:50;;;;;;;;;;;;;;;5.48;64.81;100395.31;4197333;28;20023;-65
2023/02/24 04:04:54;;;;;;;;;;;;;;;5.43;65.17;100394.94;4204671;28;20027;-65
2023/02/24 04:07:15;;;;;;;;;;;;;;;5.39;64.94;100395.25;4188452;28;20613;-65
2023/02/24 04:09:19;;;;;;;;;;;;;;;5.41;65.05;100395.09;4204904;28;20346;-64
2023/02/24 04:11:34;;;;;;;;;;;;;;;5.38;65.14;100392.72;4188209;28;19964;-64
2023/02/24 04:13:38;;;;;;;;;;;;;;;5.36;64.77;100384.84;4187072;28;20490;-65
2023/02/24 04:15:50;;;;;;;;;;;;;;;5.36;64.60;100387.50;4204121;28;20026;-65
2023/02/24 04:17:54;;;;;;;;;;;;;;;5.35;64.58;100387.66;4195837;28;20497;-65
2023/02/24 04:20:00;;;;;;;;;;;;;;;5.33;64.47;100385.13;4186776;28;19925;-64
2023/02/24 04:22:09;;;;;;;;;;;;;;;5.34;64.49;100383.28;4203988;28;20007;-64
2023/02/24 04:24:14;;;;;;;;;;;;;;;5.31;64.96;100384.44;4188332;28;20023;-65
2023/02/24 04:26:18;;;;;;;;;;;;;;;5.30;64.61;100374.72;4193714;28;19962;-64
2023/02/24 04:28:22;;;;;;;;;;;;;;;5.30;64.89;100372.06;4187845;28;20383;-65
2023/02/24 04:30:26;;;;;;;;;;;;;;;5.31;64.76;100370.22;4202211;28;20011;-65
2023/02/24 04:32:29;;;;;;;;;;;;;;;5.31;64.78;100378.25;4185139;28;20055;-64
2023/02/24 04:34:32;;;;;;;;;;;;;;;5.29;64.65;100370.34;4193661;28;20613;-64
2023/02/24 04:36:36;;;;;;;;;;;;;;;5.27;64.52;100372.34;4195369;28;20049;-65
2023/02/24 04:38:40;;;;;;;;;;;;;;;5.26;64.59;100362.63;4205534;28;20342;-65
2023/02/24 04:40:48;;;;;;;;;;;;;;;5.25;64.82;100363.66;4195707;28;20474;-65
2023/02/24 04:42:51;;;;;;;;;;;;;;;5.24;64.83;100359.28;4195555;28;20014;-65
2023/02/24 04:44:53;;;;;;;;;;;;;;;5.22;65.07;100362.09;4188517;28;20056;-65
2023/02/24 04:46:57;;;;;;;;;;;;;;;5.18;65.13;100359.88;4180470;28;20008;-65
2023/02/24 04:49:00;;;;;;;;;;;;;;;5.15;65.37;100355.66;4179301;28;20020;-65
2023/02/24 04:51:05;;;;;;;;;;;;;;;5.16;65.08;100356.50;4174492;28;20015;-65
2023/02/24 04:53:08;;;;;;;;;;;;;;;5.15;64.89;100357.50;4172233;28;20369;-64
2023/02/24 04:55:11;;;;;;;;;;;;;;;5.14;64.51;100351.31;4183691;28;20628;-65
2023/02/24 04:57:13;;;;;;;;;;;;;;;5.02;64.56;100345.31;4196431;28;20023;-65
2023/02/24 04:59:15;;;;;;;;;;;;;;;5.00;64.63;100341.97;4195967;28;20019;-65
2023/02/24 05:01:18;;;;;;;;;;;;;;;5.01;64.51;100340.94;4195767;28;20019;-65
2023/02/24 05:03:22;;;;;;;;;;;;;;;5.03;64.87;100343.47;4194791;28;20028;-64
2023/02/24 05:05:25;;;;;;;;;;;;;;;5.04;64.95;100343.31;4195131;28;20473;-64
2023/02/24 05:07:28;;;;;;;;;;;;;;;5.07;64.61;100342.19;4195491;28;20032;-64
2023/02/24 05:09:32;;;;;;;;;;;;;;;5.09;64.24;100334.00;4186949;28;19960;-65
2023/02/24 05:11:36;;;;;;;;;;;;;;;5.07;64.62;100328.81;4196242;28;20900;-65
2023/02/24 05:13:39;;;;;;;;;;;;;;;5.08;64.19;100329.63;4194368;28;20027;-65
2023/02/24 05:15:41;;;;;;;;;;;;;;;5.09;64.03;100326.81;4195584;28;20478;-65
2023/02/24 05:17:43;;;;;;;;;;;;;;;5.09;64.29;100325.97;4170788;28;19925;-65
2023/02/24 05:22:08;;;;;;;;;;;;;;;5.07;64.14;100323.44;4194497;28;20026;-65
2023/02/24 05:24:10;;;;;;;;;;;;;;;5.04;64.08;100323.75;4193907;28;20023;-65
2023/02/24 05:26:15;;;;;;;;;;;;;;;4.96;63.73;100321.81;4195182;28;20028;-65
2023/02/24 05:28:17;;;;;;;;;;;;;;;4.95;64.21;100325.50;4195004;28;20022;-64
2023/02/24 05:30:19;;;;;;;;;;;;;;;4.96;63.94;100319.16;4192940;28;20011;-64
2023/02/24 05:32:24;;;;;;;;;;;;;;;4.94;63.94;100313.13;4195004;28;20367;-64
2023/02/24 05:34:26;;;;;;;;;;;;;;;4.90;64.14;100314.41;4195746;28;19968;-64
2023/02/24 05:36:31;;;;;;;;;;;;;;;4.89;64.30;100307.38;4193728;28;19928;-64
2023/02/24 05:38:36;;;;;;;;;;;;;;;4.86;64.57;100305.00;4195789;28;20019;-64
2023/02/24 05:40:45;;;;;;;;;;;;;;;4.82;65.04;100298.25;4194740;28;20003;-64
2023/02/24 05:42:47;;;;;;;;;;;;;;;4.82;65.39;100306.28;4195460;28;20011;-64
2023/02/24 05:44:49;;;;;;;;;;;;;;;4.84;65.59;100305.16;4194922;28;20019;-65
2023/02/24 05:46:55;;;;;;;;;;;;;;;4.84;65.33;100297.13;4195068;28;20026;-65
2023/02/24 05:48:58;;;;;;;;;;;;;;;4.85;65.43;100300.63;4196295;28;20045;-65
2023/02/24 05:51:01;;;;;;;;;;;;;;;4.83;65.41;100295.44;4193044;28;20019;-65
2023/02/24 05:53:08;;;;;;;;;;;;;;;4.83;65.41;100290.09;4194866;28;20023;-65
2023/02/24 05:55:12;;;;;;;;;;;;;;;4.79;65.46;100280.66;4194091;28;20019;-65
2023/02/24 05:57:15;;;;;;;;;;;;;;;4.82;65.28;100283.03;4194187;28;20038;-64
2023/02/24 05:59:20;;;;;;;;;;;;;;;4.79;64.91;100280.66;4193603;28;19996;-64
2023/02/24 06:01:22;;;;;;;;;;;;;;;4.78;65.13;100284.34;4193718;28;20027;-65
2023/02/24 06:03:29;;;;;;;;;;;;;;;4.77;65.38;100282.66;4194988;28;20066;-65
2023/02/24 06:05:32;;;;;;;;;;;;;;;4.74;65.30;100282.13;4192889;28;20454;-65
2023/02/24 06:07:34;;;;;;;;;;;;;;;4.72;65.50;100274.25;4185327;28;20316;-64
2023/02/24 06:09:39;;;;;;;;;;;;;;;4.72;65.23;100279.59;4192463;28;21050;-65
2023/02/24 06:11:41;;;;;;;;;;;;;;;4.65;64.91;100274.00;4184643;28;20438;-65
2023/02/24 06:13:46;;;;;;;;;;;;;;;4.59;65.14;100266.59;4186004;28;20016;-64
2023/02/24 06:15:49;;;;;;;;;;;;;;;4.62;65.09;100271.63;4173736;28;20011;-65
2023/02/24 06:17:52;;;;;;;;;;;;;;;4.63;64.89;100269.81;4171076;28;20021;-65
2023/02/24 06:19:54;;;;;;;;;;;;;;;4.63;64.72;100264.44;4177544;28;20022;-65
2023/02/24 06:21:56;;;;;;;;;;;;;;;4.64;64.49;100264.31;4192432;28;20024;-63
2023/02/24 06:23:58;;;;;;;;;;;;;;;4.67;64.52;100263.13;4194037;28;20020;-64
2023/02/24 06:26:04;;;;;;;;;;;;;;;4.68;64.45;100264.84;4191575;28;20039;-64
2023/02/24 06:28:06;;;;;;;;;;;;;;;4.67;64.12;100265.81;4195201;28;20023;-64
2023/02/24 06:30:09;;;;;;;;;;;;;;;4.65;63.90;100257.09;4168129;28;20027;-64
2023/02/24 06:32:11;;;;;;;;;;;;;;;4.56;63.72;100256.19;4194883;28;20031;-64
2023/02/24 06:34:17;;;;;;;;;;;;;;;4.53;63.42;100251.16;4195616;28;20019;-64
2023/02/24 06:36:19;;;;;;;;;;;;;;;4.50;63.73;100249.59;4191919;28;20544;-64
2023/02/24 06:38:21;;;;;;;;;;;;;;;4.51;63.74;100245.09;4195300;28;20015;-64
2023/02/24 06:40:23;;;;;;;;;;;;;;;4.58;64.14;100256.03;4193414;28;20031;-63
2023/02/24 06:42:26;;;;;;;;;;;;;;;4.57;64.10;100249.84;4194569;28;20023;-64
2023/02/24 06:44:28;;;;;;;;;;;;;;;4.54;64.37;100249.31;4192672;28;20019;-64
2023/02/24 06:46:30;;;;;;;;;;;;;;;4.53;64.98;100250.28;4179257;28;20016;-64
2023/02/24 06:48:33;;;;;;;;;;;;;;;4.51;64.84;100253.09;4179030;28;20016;-64
2023/02/24 06:50:35;;;;;;;;;;;;;;;4.52;64.93;100249.44;4176410;28;20369;-64
2023/02/24 06:52:39;;;;;;;;;;;;;;;4.56;65.12;100244.63;4177135;28;20362;-64
2023/02/24 06:54:41;;;;;;;;;;;;;;;4.54;64.72;100244.78;4175599;28;20007;-63
2023/02/24 06:56:43;;;;;;;;;;;;;;;4.55;64.82;100238.44;4178299;28;20015;-64
2023/02/24 06:58:49;;;;;;;;;;;;;;;4.53;64.76;100236.91;4178849;28;20024;-64
2023/02/24 07:00:56;;;;;;;;;;;;;;;4.54;65.03;100236.75;4168332;28;20468;-63
2023/02/24 07:03:00;;;;;;;;;;;;;;;4.55;65.06;100232.28;4164643;28;20021;-64
2023/02/24 07:05:05;;;;;;;;;;;;;;;4.55;64.58;100224.25;4159653;28;20019;-65
2023/02/24 07:07:07;;;;;;;;;;;;;;;4.51;64.44;100229.91;4155556;28;20051;-64
2023/02/24 07:09:11;;;;;;;;;;;;;;;4.51;64.73;100227.22;4169560;28;20016;-64
2023/02/24 07:11:16;;;;;;;;;;;;;;;4.54;64.33;100222.56;4181862;28;20007;-64
2023/02/24 07:13:18;;;;;;;;;;;;;;;4.56;64.64;100217.88;4174460;28;20011;-64
2023/02/24 07:15:21;;;;;;;;;;;;;;;4.56;63.71;100221.44;4175859;28;20004;-64
2023/02/24 07:17:23;;;;;;;;;;;;;;;4.58;63.35;100216.75;4178768;28;20024;-65
2023/02/24 07:19:26;;;;;;;;;;;;;;;4.54;63.25;100215.38;4186491;28;20005;-64
2023/02/24 07:21:38;;;;;;;;;;;;;;;4.55;63.03;100217.06;4177081;28;20564;-64
2023/02/24 07:23:40;;;;;;;;;;;;;;;4.54;62.31;100220.72;4178618;28;20011;-63
2023/02/24 07:25:45;;;;;;;;;;;;;;;4.52;62.26;100212.00;4177107;28;20015;-64
2023/02/24 07:27:46;;;;;;;;;;;;;;;4.50;62.44;100205.97;4178708;28;20008;-63
2023/02/24 07:29:49;;;;;;;;;;;;;;;4.51;62.32;100208.50;4175685;28;20020;-64
2023/02/24 07:31:55;;;;;;;;;;;;;;;4.53;62.34;100211.03;4177766;28;20003;-63
2023/02/24 07:33:59;;;;;;;;;;;;;;;4.48;61.94;100200.78;4180484;28;20015;-63
2023/02/24 07:36:07;;;;;;;;;;;;;;;4.47;62.25;100192.91;4180977;28;20573;-62
2023/02/24 07:38:09;;;;;;;;;;;;;;;4.46;61.80;100201.91;4181183;28;20012;-64
2023/02/24 07:40:16;;;;;;;;;;;;;;;4.44;61.47;100191.38;4180910;28;20028;-64
2023/02/24 07:42:18;;;;;;;;;;;;;;;4.47;61.28;100192.91;4177703;28;20032;-64
2023/02/24 07:44:20;;;;;;;;;;;;;;;4.49;61.09;100193.59;4186243;28;20494;-63
2023/02/24 07:46:24;;;;;;;;;;;;;;;4.52;60.16;100174.56;4175510;28;20443;-63
2023/02/24 07:48:27;;;;;;;;;;;;;;;4.53;59.90;100181.59;4176975;28;20378;-63
2023/02/24 07:50:31;;;;;;;;;;;;;;;4.53;59.90;100178.06;4178012;28;20016;-63
2023/02/24 07:52:33;;;;;;;;;;;;;;;4.53;59.73;100178.06;4178699;28;20036;-63
2023/02/24 07:54:35;;;;;;;;;;;;;;;4.54;59.81;100175.25;4184639;28;20515;-63
2023/02/24 07:56:44;;;;;;;;;;;;;;;4.56;59.65;100172.41;4179620;28;20440;-63
2023/02/24 07:58:49;;;;;;;;;;;;;;;4.55;59.60;100160.06;4179545;28;20020;-66
2023/02/24 08:00:59;;;;;;;;;;;;;;;4.56;59.41;100169.75;4176852;28;20028;-63
2023/02/24 08:03:01;;;;;;;;;;;;;;;4.56;58.99;100151.03;4177717;28;20019;-64
2023/02/24 08:05:07;;;;;;;;;;;;;;;4.53;59.55;100149.53;4178298;28;20328;-63
2023/02/24 08:07:13;;;;;;;;;;;;;;;4.54;59.65;100158.38;4176803;28;20032;-63
2023/02/24 08:09:19;;;;;;;;;;;;;;;4.51;59.88;100140.78;4177772;28;20026;-63
2023/02/24 08:11:23;;;;;;;;;;;;;;;4.53;60.48;100143.31;4170210;28;20023;-63
2023/02/24 08:13:28;;;;;;;;;;;;;;;4.51;60.45;100136.28;4177779;28;20434;-63
2023/02/24 08:15:32;;;;;;;;;;;;;;;4.49;60.54;100129.41;4178616;28;20020;-63
2023/02/24 08:17:34;;;;;;;;;;;;;;;4.43;60.98;100122.81;4179273;28;20016;-61
2023/02/24 08:19:39;;;;;;;;;;;;;;;4.44;61.50;100113.00;4186620;28;20023;-63
2023/02/24 08:21:46;;;;;;;;;;;;;;;4.47;61.65;100116.19;4179024;28;20368;-63
2023/02/24 08:23:48;;;;;;;;;;;;;;;4.49;61.27;100116.03;4166024;28;20024;-63
2023/02/24 08:25:50;;;;;;;;;;;;;;;4.50;61.11;100112.38;4176706;28;20036;-61
2023/02/24 08:27:56;;;;;;;;;;;;;;;4.48;60.72;100103.66;4185784;28;20028;-64
2023/02/24 08:29:59;;;;;;;;;;;;;;;4.49;60.65;100102.66;4179164;28;20099;-65
2023/02/24 08:32:01;;;;;;;;;;;;;;;4.51;60.08;100092.66;4177157;28;20030;-63
2023/02/24 08:34:03;;;;;;;;;;;;;;;4.51;60.09;100092.66;4178129;28;20020;-65
2023/02/24 08:36:05;;;;;;;;;;;;;;;4.50;60.33;100089.16;4178759;28;20028;-65
2023/02/24 08:38:13;;;;;;;;;;;;;;;4.51;60.65;100100.66;4178927;28;20364;-65
2023/02/24 08:40:36;;;;;;;;;;;;;;;4.50;60.95;100091.00;4178610;28;20039;-65
2023/02/24 08:42:38;;;;;;;;;;;;;;;4.50;60.87;100088.31;4174434;28;20106;-68
2023/02/24 08:44:41;;;;;;;;;;;;;;;4.51;61.04;100087.28;4173357;28;20019;-68
2023/02/24 08:46:43;;;;;;;;;;;;;;;4.52;61.08;100078.28;4174352;28;20466;-67
2023/02/24 08:48:46;;;;;;;;;;;;;;;4.54;61.30;100080.81;4177983;28;19937;-66
2023/02/24 08:50:51;;;;;;;;;;;;;;;4.56;60.89;100071.66;4176862;28;19960;-66
2023/02/24 08:52:53;;;;;;;;;;;;;;;4.56;60.64;100065.44;4176135;28;20019;-66
2023/02/24 08:55:00;;;;;;;;;;;;;;;4.56;61.24;100065.44;4176172;28;20381;-66
2023/02/24 08:57:06;;;;;;;;;;;;;;;4.53;61.05;100055.91;4170128;28;19964;-66
2023/02/24 08:59:25;;;;;;;;;;;;;;;4.51;61.17;100061.41;4185275;28;20406;-65
2023/02/24 09:01:33;;;;;;;;;;;;;;;4.53;61.19;100045.22;4173325;28;20024;-65
2023/02/24 09:03:44;;;;;;;;;;;;;;;4.56;60.99;100054.75;4174276;28;20838;-67
2023/02/24 09:05:47;;;;;;;;;;;;;;;4.58;61.28;100047.44;4172785;28;20028;-66
2023/02/24 09:07:53;;;;;;;;;;;;;;;4.57;60.82;100043.91;4174452;28;20023;-66
2023/02/24 09:09:59;;;;;;;;;;;;;;;4.57;60.59;100040.38;4171129;28;20020;-66
2023/02/24 09:12:01;;;;;;;;;;;;;;;4.53;60.28;100033.66;4174366;28;20016;-66
2023/02/24 09:14:03;;;;;;;;;;;;;;;4.51;60.56;100031.13;4174651;28;20031;-65
2023/02/24 09:16:05;;;;;;;;;;;;;;;4.52;60.95;100027.47;4174257;28;20029;-67
2023/02/24 09:18:13;;;;;;;;;;;;;;;4.55;60.76;100026.34;4174421;28;20451;-64
2023/02/24 09:20:54;;;;;;;;;;;;;;;4.55;61.12;100016.47;4173821;28;20031;-64
2023/02/24 09:25:16;;;;;;;;;;;;;;;4.58;60.44;100015.34;4180943;28;20554;-62
2023/02/24 09:27:20;;;;;;;;;;;;;;;4.58;60.35;100021.50;4191626;28;20015;-63
2023/02/24 09:29:48;;;;;;;;;;;;;;;4.59;60.11;100025.00;4185153;28;19996;-64
2023/02/24 09:31:54;;;;;;;;;;;;;;;4.59;60.15;100004.47;4195115;28;20024;-64
2023/02/24 09:34:00;;;;;;;;;;;;;;;4.58;60.39;100008.13;4195992;28;20370;-64
2023/02/24 09:36:09;;;;;;;;;;;;;;;4.58;60.59;100013.50;4192854;28;20024;-63
2023/02/24 09:38:15;;;;;;;;;;;;;;;4.59;60.44;100000.94;4193345;28;20024;-63
2023/02/24 09:40:38;;;;;;;;;;;;;;;4.62;60.68;99998.78;4194519;28;20039;-63
2023/02/24 09:42:47;;;;;;;;;;;;;;;4.61;60.33;100002.47;4193272;28;20031;-63
2023/02/24 09:44:51;;;;;;;;;;;;;;;4.60;60.55;99994.63;4190154;28;20430;-64
2023/02/24 09:46:55;;;;;;;;;;;;;;;4.62;60.50;100004.13;4177412;28;20571;-65
2023/02/24 09:49:04;;;;;;;;;;;;;;;4.66;60.47;99983.28;4177442;28;19960;-64
2023/02/24 09:51:09;;;;;;;;;;;;;;;4.67;59.85;99985.81;4177526;28;20039;-64
2023/02/24 09:53:16;;;;;;;;;;;;;;;4.66;59.87;99989.47;4176507;28;20048;-65
2023/02/24 09:55:23;;;;;;;;;;;;;;;4.67;60.06;99984.94;4191798;28;20994;-64
2023/02/24 09:57:36;;;;;;;;;;;;;;;4.70;60.10;99971.25;4191265;28;20031;-65
2023/02/24 09:59:49;;;;;;;;;;;;;;;4.73;60.34;99978.13;4190489;28;20039;-65
2023/02/24 10:01:53;;;;;;;;;;;;;;;4.68;59.53;99973.25;4194345;28;20465;-64
2023/02/24 10:04:03;;;;;;;;;;;;;;;4.67;59.78;99964.41;4192321;28;20023;-64
2023/02/24 10:06:10;;;;;;;;;;;;;;;4.67;59.52;99955.53;4193259;28;20075;-64
2023/02/24 10:08:13;;;;;;;;;;;;;;;4.69;59.74;99956.22;4192010;28;20027;-64
2023/02/24 10:10:19;;;;;;;;;;;;;;;4.71;59.49;99951.53;4191271;28;20434;-63
2023/02/24 10:12:22;;;;;;;;;;;;;;;4.74;59.29;99943.22;4190473;28;20036;-63
2023/02/24 10:14:28;;;;;;;;;;;;;;;4.76;59.37;99940.38;4192726;28;20297;-65
2023/02/24 10:16:40;;;;;;;;;;;;;;;4.76;59.21;99943.03;4193618;28;20358;-64
2023/02/24 10:18:44;;;;;;;;;;;;;;;4.74;59.32;99931.69;4193233;28;20028;-64
2023/02/24 10:20:48;;;;;;;;;;;;;;;4.76;59.13;99941.19;4193183;28;20305;-64
2023/02/24 10:22:51;;;;;;;;;;;;;;;4.78;59.07;99951.75;4194177;28;20027;-64
2023/02/24 10:25:00;;;;;;;;;;;;;;;4.81;59.10;99930.88;4201006;28;20007;-63
2023/02/24 10:27:04;;;;;;;;;;;;;;;4.84;59.10;99935.91;4193304;28;20015;-64
2023/02/24 10:29:08;;;;;;;;;;;;;;;4.87;58.91;99929.38;4150972;28;20007;-62
2023/02/24 10:31:24;;;;;;;;;;;;;;;4.87;58.87;99916.88;4190439;28;20494;-62
2023/02/24 10:33:29;;;;;;;;;;;;;;;4.90;59.17;99931.75;4192461;28;20015;-65
2023/02/24 10:35:32;;;;;;;;;;;;;;;4.92;58.52;99907.50;4182390;28;20324;-64
2023/02/24 10:37:36;;;;;;;;;;;;;;;4.92;58.03;99913.72;4193500;28;20019;-65
2023/02/24 10:39:42;;;;;;;;;;;;;;;4.93;58.02;99915.38;4191790;28;20027;-65
2023/02/24 10:41:48;;;;;;;;;;;;;;;4.94;58.08;99898.31;4189368;28;20454;-65
2023/02/24 10:43:54;;;;;;;;;;;;;;;4.97;58.36;99894.47;4191670;28;20050;-63
2023/02/24 10:46:04;;;;;;;;;;;;;;;5.00;58.47;99897.69;4189151;28;20025;-64
2023/02/24 10:48:06;;;;;;;;;;;;;;;5.03;57.86;99885.78;4188711;28;20032;-63
2023/02/24 10:50:21;;;;;;;;;;;;;;;5.04;57.72;99888.31;4183218;28;20012;-63
2023/02/24 10:52:35;;;;;;;;;;;;;;;5.04;57.86;99877.59;4191532;28;20015;-64
2023/02/24 10:57:06;;;;;;;;;;;;;;;5.08;58.40;99863.91;4191890;28;20011;-64
2023/02/24 11:01:53;;;;;;;;;;;;;;;5.10;58.13;99856.56;4191619;28;20243;-63
2023/02/24 11:04:11;;;;;;;;;;;;;;;5.09;57.78;99862.91;4192917;28;20007;-64